Time;durP1;ratioP1;P1;durP2;ratioP2;P2;SDS_P1;SDS_P2;PMS_P1;PMS_P2;Temp;Humidity;BMP_temperature;BMP_pressure;BME280_temperature;BME280_humidity;BME280_pressure;Samples;Min_cycle;Max_cycle;Signal;HPM_P1;HPM_P2
2021/08/14 00:00:10;;;;;;;13.10;3.80;;;16.60;99.90;;;;;;5042921;28;20225;-89
2021/08/14 00:02:36;;;;;;;7.83;3.40;;;16.60;99.90;;;;;;5061771;28;20561;-88
2021/08/14 00:05:03;;;;;;;7.83;3.67;;;16.60;99.90;;;;;;5044383;28;20240;-88
2021/08/14 00:07:29;;;;;;;9.10;3.80;;;16.60;99.90;;;;;;5061262;28;20540;-88
2021/08/14 00:09:55;;;;;;;8.93;2.93;;;16.60;99.90;;;;;;4964024;28;20256;-88
2021/08/14 00:12:21;;;;;;;10.53;3.87;;;16.50;99.90;;;;;;5006036;28;20236;-88
2021/08/14 00:14:47;;;;;;;9.70;3.40;;;16.50;99.90;;;;;;5042815;28;20197;-88
2021/08/14 00:17:12;;;;;;;9.30;3.77;;;16.50;99.90;;;;;;5058806;28;20243;-88
2021/08/14 00:19:38;;;;;;;5.23;4.03;;;16.50;99.90;;;;;;5043844;28;20189;-89
2021/08/14 00:22:04;;;;;;;9.03;4.23;;;16.40;99.90;;;;;;5041181;28;20170;-88
2021/08/14 00:24:30;;;;;;;10.33;4.07;;;16.40;99.90;;;;;;5041953;28;20292;-89
2021/08/14 00:26:55;;;;;;;10.93;4.07;;;16.40;99.90;;;;;;5041849;28;20204;-88
2021/08/14 00:29:21;;;;;;;15.10;4.60;;;16.40;99.90;;;;;;5042289;28;20295;-88
2021/08/14 00:31:47;;;;;;;7.93;4.07;;;16.40;99.90;;;;;;5042988;28;20204;-89
2021/08/14 00:34:13;;;;;;;7.00;3.20;;;16.40;99.90;;;;;;5041989;28;20552;-89
2021/08/14 00:36:38;;;;;;;11.57;3.20;;;16.40;99.90;;;;;;5040696;28;20243;-90
2021/08/14 00:39:04;;;;;;;19.57;4.50;;;16.40;99.90;;;;;;5041823;28;20209;-89
2021/08/14 00:41:31;;;;;;;7.93;3.80;;;16.40;99.90;;;;;;5042877;28;20246;-89
2021/08/14 00:44:02;;;;;;;5.90;3.20;;;16.40;99.90;;;;;;5057100;28;20222;-89
2021/08/14 00:46:32;;;;;;;11.70;4.07;;;16.40;99.90;;;;;;5058824;28;20213;-89
2021/08/14 00:48:59;;;;;;;9.17;3.40;;;16.30;99.90;;;;;;5042505;28;20213;-89
2021/08/14 00:51:25;;;;;;;17.53;4.43;;;16.30;99.90;;;;;;5049237;28;20209;-89
2021/08/14 00:53:50;;;;;;;11.23;4.03;;;16.30;99.90;;;;;;5066554;28;20278;-89
2021/08/14 00:56:20;;;;;;;14.10;3.70;;;16.30;99.90;;;;;;5056926;28;20217;-89
2021/08/14 00:58:48;;;;;;;9.73;4.13;;;16.30;99.90;;;;;;5059168;28;20173;-89
2021/08/14 01:01:15;;;;;;;9.60;4.47;;;16.30;99.90;;;;;;5060515;28;21316;-89
2021/08/14 01:03:41;;;;;;;10.83;4.00;;;16.30;99.90;;;;;;5043928;28;20696;-89
2021/08/14 01:06:07;;;;;;;9.27;4.03;;;16.30;99.90;;;;;;5026040;28;20235;-88
2021/08/14 01:08:33;;;;;;;16.20;4.13;;;16.30;99.90;;;;;;5041278;28;20217;-89
2021/08/14 01:10:58;;;;;;;17.07;4.43;;;16.30;99.90;;;;;;5041680;28;20235;-88
2021/08/14 01:13:24;;;;;;;17.87;4.20;;;16.30;99.90;;;;;;5056935;28;20200;-88
2021/08/14 01:15:51;;;;;;;13.73;3.77;;;16.40;99.90;;;;;;5041782;28;20205;-88
2021/08/14 01:18:18;;;;;;;7.73;4.03;;;16.40;99.90;;;;;;5056838;28;20260;-88
2021/08/14 01:20:45;;;;;;;15.17;5.03;;;16.40;99.90;;;;;;5041946;28;20233;-88
2021/08/14 01:23:11;;;;;;;10.80;3.63;;;16.50;99.90;;;;;;5039409;28;20212;-88
2021/08/14 01:25:37;;;;;;;13.87;4.40;;;16.50;99.90;;;;;;5056024;28;20661;-88
2021/08/14 01:28:03;;;;;;;10.40;4.47;;;16.50;99.90;;;;;;5041153;28;20187;-88
2021/08/14 01:30:29;;;;;;;9.17;3.87;;;16.50;99.90;;;;;;5038448;28;20204;-88
2021/08/14 01:32:55;;;;;;;9.17;3.97;;;16.60;99.90;;;;;;5040813;28;20768;-88
2021/08/14 01:35:21;;;;;;;12.17;3.57;;;16.50;99.90;;;;;;5038674;28;20209;-88
2021/08/14 01:37:47;;;;;;;8.50;3.50;;;16.60;99.90;;;;;;5056323;28;20231;-88
2021/08/14 01:40:13;;;;;;;9.87;5.10;;;16.60;99.90;;;;;;5044009;28;20430;-88
2021/08/14 01:42:38;;;;;;;11.60;3.40;;;16.60;99.90;;;;;;5041542;28;20197;-88
2021/08/14 01:45:05;;;;;;;14.90;4.50;;;16.60;99.90;;;;;;5058580;28;20296;-88
2021/08/14 01:47:31;;;;;;;17.80;4.23;;;16.70;99.90;;;;;;5040654;28;20233;-88
2021/08/14 01:49:57;;;;;;;13.63;4.17;;;16.70;99.90;;;;;;5023870;28;20689;-88
2021/08/14 01:52:23;;;;;;;16.50;5.47;;;16.70;99.90;;;;;;5038687;28;20639;-88
2021/08/14 01:54:49;;;;;;;9.70;3.57;;;16.70;99.90;;;;;;5039909;28;20246;-88
2021/08/14 01:57:18;;;;;;;23.43;5.33;;;16.70;99.90;;;;;;5038519;28;20237;-88
2021/08/14 01:59:44;;;;;;;12.67;4.43;;;16.70;99.90;;;;;;5058953;28;20704;-88
2021/08/14 02:02:10;;;;;;;15.00;4.77;;;16.70;99.90;;;;;;5054849;28;20645;-88
2021/08/14 02:04:36;;;;;;;9.63;3.70;;;16.80;99.90;;;;;;5040902;28;20768;-88
2021/08/14 02:07:02;;;;;;;19.03;5.53;;;16.80;99.90;;;;;;5037436;28;20303;-88
2021/08/14 02:09:28;;;;;;;7.20;3.40;;;16.90;99.90;;;;;;5040238;28;20554;-88
2021/08/14 02:11:54;;;;;;;9.47;3.40;;;16.90;99.90;;;;;;5040701;28;20273;-88
2021/08/14 02:14:20;;;;;;;12.37;3.40;;;16.90;99.90;;;;;;5065447;28;20220;-88
2021/08/14 02:16:46;;;;;;;15.07;4.30;;;16.90;99.90;;;;;;5039723;28;20237;-87
2021/08/14 02:19:12;;;;;;;10.23;3.60;;;17.00;99.90;;;;;;5038611;28;20768;-89
2021/08/14 02:21:37;;;;;;;11.17;3.83;;;16.90;99.90;;;;;;5040951;28;20213;-88
2021/08/14 02:24:04;;;;;;;13.30;5.10;;;17.00;99.90;;;;;;5039499;28;21321;-88
2021/08/14 02:26:30;;;;;;;12.43;4.43;;;16.90;99.90;;;;;;5039906;28;20583;-89
2021/08/14 02:28:56;;;;;;;13.17;4.13;;;16.90;99.90;;;;;;5040099;28;20191;-88
2021/08/14 02:31:21;;;;;;;11.43;3.57;;;16.90;99.90;;;;;;5040651;28;20672;-89
2021/08/14 02:33:47;;;;;;;15.73;3.60;;;16.90;99.90;;;;;;5039701;28;20215;-89
2021/08/14 02:36:14;;;;;;;12.10;3.40;;;16.90;99.90;;;;;;5040407;28;20204;-88
2021/08/14 02:38:40;;;;;;;11.37;3.50;;;16.90;99.90;;;;;;5056394;28;20213;-88
2021/08/14 02:41:07;;;;;;;11.07;3.37;;;16.90;99.90;;;;;;5058035;28;20211;-88
2021/08/14 02:43:34;;;;;;;11.10;2.93;;;16.90;99.90;;;;;;5076648;28;20719;-88
2021/08/14 02:46:00;;;;;;;10.03;3.23;;;16.90;99.90;;;;;;5073925;28;20244;-89
2021/08/14 02:48:30;;;;;;;13.07;3.57;;;17.00;99.90;;;;;;5040458;28;20630;-89
2021/08/14 02:50:56;;;;;;;11.77;4.37;;;17.00;99.90;;;;;;5040363;28;20205;-88
2021/08/14 02:53:23;;;;;;;9.30;3.87;;;17.00;99.90;;;;;;5055765;28;20717;-88
2021/08/14 02:55:49;;;;;;;15.97;3.87;;;17.00;99.90;;;;;;5039183;28;20195;-88
2021/08/14 02:58:15;;;;;;;10.10;3.87;;;17.00;99.90;;;;;;5056735;28;20197;-88
2021/08/14 03:00:40;;;;;;;20.33;4.57;;;17.00;99.90;;;;;;5055558;28;20211;-88
2021/08/14 03:03:06;;;;;;;8.77;4.40;;;17.00;99.90;;;;;;5056896;28;20319;-88
2021/08/14 03:05:32;;;;;;;7.27;3.77;;;17.00;99.90;;;;;;5055199;28;20592;-89
2021/08/14 03:07:58;;;;;;;10.77;4.73;;;17.00;99.90;;;;;;5038372;28;20217;-88
2021/08/14 03:10:25;;;;;;;13.30;4.10;;;17.00;99.90;;;;;;5054173;28;20726;-88
2021/08/14 03:12:51;;;;;;;12.97;4.57;;;17.00;99.90;;;;;;5039956;28;20959;-88
2021/08/14 03:15:17;;;;;;;8.27;3.27;;;17.00;99.90;;;;;;5056194;28;20208;-88
2021/08/14 03:17:43;;;;;;;13.00;4.43;;;17.00;99.90;;;;;;5041976;28;20280;-88
2021/08/14 03:20:10;;;;;;;10.70;4.57;;;17.00;99.90;;;;;;5043527;28;20228;-88
2021/08/14 03:22:36;;;;;;;12.43;4.40;;;17.00;99.90;;;;;;5041544;28;20195;-89
2021/08/14 03:25:03;;;;;;;6.90;2.87;;;17.10;99.90;;;;;;5059984;28;20221;-88
2021/08/14 03:27:28;;;;;;;9.83;3.77;;;17.00;99.90;;;;;;5044036;28;20215;-88
2021/08/14 03:29:54;;;;;;;15.37;4.97;;;17.00;99.90;;;;;;5044761;28;20212;-88
2021/08/14 03:32:20;;;;;;;15.17;5.00;;;17.10;99.90;;;;;;5042777;28;20312;-88
2021/08/14 03:34:46;;;;;;;10.90;4.47;;;17.10;99.90;;;;;;5044723;28;20192;-89
2021/08/14 03:37:11;;;;;;;18.40;5.37;;;17.10;99.90;;;;;;5059897;28;20246;-88
2021/08/14 03:39:38;;;;;;;14.60;4.87;;;17.10;99.90;;;;;;5027044;28;20310;-88
2021/08/14 03:42:04;;;;;;;16.43;5.90;;;17.10;99.90;;;;;;5040835;28;20276;-88
2021/08/14 03:44:30;;;;;;;11.40;4.30;;;17.10;99.90;;;;;;5043675;28;20240;-89
2021/08/14 03:46:56;;;;;;;12.27;3.80;;;17.10;99.90;;;;;;5042766;28;20692;-89
2021/08/14 03:49:22;;;;;;;12.47;3.77;;;17.10;99.90;;;;;;5044577;28;20267;-88
2021/08/14 03:51:47;;;;;;;10.00;3.63;;;17.20;99.90;;;;;;5042543;28;20613;-89
2021/08/14 03:54:13;;;;;;;8.47;3.93;;;17.10;99.90;;;;;;5059849;28;20209;-88
2021/08/14 03:56:39;;;;;;;16.07;3.60;;;17.20;99.90;;;;;;5043717;28;20209;-89
2021/08/14 03:59:05;;;;;;;12.90;4.03;;;17.10;99.90;;;;;;5042365;28;20222;-89
2021/08/14 04:01:31;;;;;;;33.10;4.73;;;17.10;99.90;;;;;;5041379;28;20224;-88
2021/08/14 04:03:57;;;;;;;12.73;4.23;;;17.10;99.90;;;;;;5058851;28;20205;-89
2021/08/14 04:06:23;;;;;;;11.60;5.50;;;17.20;99.90;;;;;;5026574;28;20282;-88
2021/08/14 04:08:49;;;;;;;16.03;4.90;;;17.10;99.90;;;;;;5060211;28;20217;-88
2021/08/14 04:11:14;;;;;;;10.00;5.17;;;17.20;99.90;;;;;;5042336;28;20233;-89
2021/08/14 04:13:40;;;;;;;8.53;3.73;;;17.20;99.90;;;;;;5041274;28;20189;-88
2021/08/14 04:16:06;;;;;;;8.37;4.23;;;17.20;99.90;;;;;;5043676;28;20181;-89
2021/08/14 04:18:31;;;;;;;12.97;4.43;;;17.20;99.90;;;;;;5042920;28;20600;-88
2021/08/14 04:20:57;;;;;;;7.63;3.03;;;17.20;99.90;;;;;;5043243;28;20215;-88
2021/08/14 04:23:23;;;;;;;18.03;4.57;;;17.20;99.90;;;;;;5041854;28;20308;-89
2021/08/14 04:25:49;;;;;;;10.90;4.03;;;17.20;99.90;;;;;;5041334;28;20223;-88
2021/08/14 04:28:15;;;;;;;16.07;4.53;;;17.20;99.90;;;;;;5041864;28;20322;-88
2021/08/14 04:30:40;;;;;;;9.30;2.83;;;17.20;99.90;;;;;;5042511;28;20275;-88
2021/08/14 04:33:06;;;;;;;9.73;3.77;;;17.20;99.90;;;;;;5043191;28;20206;-89
2021/08/14 04:35:32;;;;;;;10.77;4.63;;;17.20;99.90;;;;;;5041558;28;20211;-88
2021/08/14 04:37:58;;;;;;;17.43;4.33;;;17.30;99.90;;;;;;5041853;28;20381;-89
2021/08/14 04:40:23;;;;;;;15.23;4.37;;;17.30;99.90;;;;;;5041418;28;20188;-89
2021/08/14 04:42:50;;;;;;;8.87;4.23;;;17.30;99.90;;;;;;5041946;28;20319;-88
2021/08/14 04:45:17;;;;;;;10.10;4.30;;;17.30;99.90;;;;;;5042325;28;20806;-89
2021/08/14 04:47:42;;;;;;;18.30;3.73;;;17.30;99.90;;;;;;5058824;28;20224;-89
2021/08/14 04:50:10;;;;;;;16.10;4.47;;;17.40;99.90;;;;;;5024768;28;20214;-89
2021/08/14 04:52:36;;;;;;;11.10;4.13;;;17.30;99.90;;;;;;5018926;28;20196;-89
2021/08/14 04:55:02;;;;;;;7.67;4.23;;;17.40;99.90;;;;;;5042221;28;20292;-89
2021/08/14 04:57:28;;;;;;;13.87;4.13;;;17.40;99.90;;;;;;5057830;28;20681;-88
2021/08/14 04:59:54;;;;;;;11.10;3.60;;;17.40;99.90;;;;;;5058962;28;20277;-88
2021/08/14 05:02:20;;;;;;;20.57;4.40;;;17.50;99.90;;;;;;5058282;28;20259;-88
2021/08/14 05:04:46;;;;;;;11.03;3.63;;;17.50;99.90;;;;;;5056349;28;20633;-88
2021/08/14 05:07:12;;;;;;;7.40;3.77;;;17.60;99.90;;;;;;5040853;28;20562;-88
2021/08/14 05:09:38;;;;;;;13.70;4.10;;;17.60;99.90;;;;;;5056550;28;20208;-89
2021/08/14 05:12:05;;;;;;;9.10;3.53;;;17.60;99.90;;;;;;5065454;28;20252;-88
2021/08/14 05:14:31;;;;;;;11.97;4.73;;;17.70;99.90;;;;;;5042211;28;20299;-89
2021/08/14 05:16:57;;;;;;;12.63;4.20;;;17.70;99.90;;;;;;5041067;28;20277;-88
2021/08/14 05:19:22;;;;;;;11.47;3.80;;;17.80;99.90;;;;;;5057834;28;20273;-90
2021/08/14 05:21:48;;;;;;;21.07;4.50;;;17.80;99.90;;;;;;5024221;28;20211;-89
2021/08/14 05:24:14;;;;;;;11.97;3.77;;;17.90;99.90;;;;;;5041521;28;20224;-89
2021/08/14 05:26:42;;;;;;;10.13;4.70;;;18.00;99.90;;;;;;5041848;28;20208;-89
2021/08/14 05:29:08;;;;;;;16.70;3.80;;;18.00;99.90;;;;;;5039255;28;20213;-89
2021/08/14 05:31:34;;;;;;;8.47;3.67;;;18.10;99.90;;;;;;5058196;28;20268;-88
2021/08/14 05:34:04;;;;;;;11.17;4.13;;;18.20;99.90;;;;;;5059779;28;20292;-88
2021/08/14 05:36:34;;;;;;;12.23;3.43;;;18.30;99.90;;;;;;5040895;28;20213;-89
2021/08/14 05:39:00;;;;;;;17.97;4.47;;;18.30;99.90;;;;;;5049719;28;20239;-88
2021/08/14 05:41:26;;;;;;;16.37;5.23;;;18.50;99.90;;;;;;5055691;28;20221;-88
2021/08/14 05:43:52;;;;;;;10.83;4.60;;;18.70;99.90;;;;;;5031843;28;20609;-89
2021/08/14 05:46:18;;;;;;;16.07;5.23;;;19.40;99.90;;;;;;5060185;28;20263;-89
2021/08/14 05:48:44;;;;;;;10.67;3.83;;;20.00;99.90;;;;;;5040836;28;20600;-88
2021/08/14 05:51:13;;;;;;;7.13;3.17;;;20.40;99.90;;;;;;5057259;28;20209;-88
2021/08/14 05:53:39;;;;;;;12.20;2.57;;;19.90;99.90;;;;;;5057097;28;20684;-89
2021/08/14 05:56:05;;;;;;;7.37;4.07;;;19.70;99.90;;;;;;5056858;28;20211;-88
2021/08/14 05:58:32;;;;;;;8.30;3.20;;;19.30;99.90;;;;;;5056494;28;20184;-88
2021/08/14 06:00:57;;;;;;;10.20;3.43;;;19.30;99.90;;;;;;5055204;28;20222;-88
2021/08/14 06:03:23;;;;;;;7.50;3.10;;;19.30;99.90;;;;;;5039526;28;20200;-88
2021/08/14 06:05:49;;;;;;;8.07;3.20;;;19.10;99.90;;;;;;5038659;28;20220;-88
2021/08/14 06:08:15;;;;;;;7.30;3.07;;;19.00;99.90;;;;;;5039592;28;20221;-89
2021/08/14 06:10:40;;;;;;;5.37;2.53;;;19.10;99.90;;;;;;5056652;28;20191;-88
2021/08/14 06:13:06;;;;;;;9.03;3.47;;;19.10;99.90;;;;;;5059094;28;20188;-86
2021/08/14 06:15:32;;;;;;;13.00;3.33;;;19.10;99.90;;;;;;5035294;28;20881;-86
2021/08/14 06:17:58;;;;;;;8.23;2.90;;;19.30;99.90;;;;;;5036856;28;20233;-88
2021/08/14 06:20:23;;;;;;;6.87;2.80;;;19.30;99.90;;;;;;5038548;28;20208;-87
2021/08/14 06:22:49;;;;;;;8.30;3.23;;;19.30;99.90;;;;;;5040373;28;20189;-86
2021/08/14 06:25:15;;;;;;;11.63;3.57;;;19.30;99.90;;;;;;5038923;28;20213;-86
2021/08/14 06:27:41;;;;;;;7.83;3.17;;;19.50;99.90;;;;;;5036481;28;20216;-87
2021/08/14 06:30:08;;;;;;;4.40;2.77;;;19.50;99.90;;;;;;5039234;28;21449;-87
2021/08/14 06:32:34;;;;;;;10.27;3.77;;;19.60;99.90;;;;;;5037083;28;20216;-86
2021/08/14 06:35:00;;;;;;;9.20;3.30;;;19.70;99.90;;;;;;5053869;28;20554;-86
2021/08/14 06:37:26;;;;;;;9.43;3.43;;;19.80;99.90;;;;;;5038918;28;20233;-89
2021/08/14 06:39:52;;;;;;;12.53;3.63;;;20.00;99.90;;;;;;5038854;28;20338;-87
2021/08/14 06:42:18;;;;;;;11.83;3.40;;;20.20;99.90;;;;;;5041898;28;20344;-87
2021/08/14 06:44:44;;;;;;;12.10;4.13;;;20.70;99.90;;;;;;5054516;28;20758;-88
2021/08/14 06:47:09;;;;;;;11.53;3.23;;;20.90;99.90;;;;;;5072418;28;20208;-87
2021/08/14 06:49:35;;;;;;;9.33;4.17;;;20.90;99.90;;;;;;5039043;28;20216;-88
2021/08/14 06:52:01;;;;;;;6.20;2.30;;;20.90;99.90;;;;;;5058351;28;20225;-87
2021/08/14 06:54:27;;;;;;;3.77;2.27;;;20.70;99.90;;;;;;5042202;28;20220;-84
2021/08/14 06:56:53;;;;;;;9.80;2.40;;;20.80;99.90;;;;;;5060339;28;20240;-87
2021/08/14 06:59:19;;;;;;;4.40;2.60;;;20.60;99.90;;;;;;5059530;28;20247;-86
2021/08/14 07:01:44;;;;;;;4.33;2.00;;;20.30;99.90;;;;;;5041400;28;20197;-89
2021/08/14 07:04:10;;;;;;;7.50;2.20;;;20.10;99.90;;;;;;5061130;28;20195;-88
2021/08/14 07:06:36;;;;;;;4.77;2.23;;;20.40;99.90;;;;;;5027037;28;20228;-88
2021/08/14 07:09:02;;;;;;;6.63;2.43;;;20.30;99.90;;;;;;5041935;28;20288;-87
2021/08/14 07:11:28;;;;;;;4.67;2.20;;;20.20;99.90;;;;;;5011245;28;20681;-90
2021/08/14 07:13:53;;;;;;;7.83;2.53;;;20.00;99.90;;;;;;5037948;28;20196;-87
2021/08/14 07:16:19;;;;;;;5.07;2.43;;;20.10;99.90;;;;;;5028382;28;20701;-88
2021/08/14 07:18:45;;;;;;;6.20;3.23;;;19.90;99.90;;;;;;5043314;28;20239;-89
2021/08/14 07:21:11;;;;;;;8.90;3.00;;;20.00;99.90;;;;;;5025931;28;20717;-89
2021/08/14 07:23:37;;;;;;;5.97;2.57;;;20.00;99.90;;;;;;5042778;28;20213;-88
2021/08/14 07:26:03;;;;;;;6.10;2.23;;;20.00;99.90;;;;;;5042881;28;20239;-89
2021/08/14 07:28:29;;;;;;;7.53;2.57;;;20.00;99.90;;;;;;5061204;28;20276;-89
2021/08/14 07:30:56;;;;;;;5.50;1.83;;;20.00;99.90;;;;;;5043589;28;20323;-86
2021/08/14 07:33:22;;;;;;;4.17;2.10;;;20.00;99.90;;;;;;5024307;28;21364;-91
2021/08/14 07:35:47;;;;;;;8.03;2.10;;;19.90;99.90;;;;;;5041021;28;20217;-89
2021/08/14 07:38:14;;;;;;;5.17;2.00;;;19.70;99.90;;;;;;5040149;28;20259;-87
2021/08/14 07:40:41;;;;;;;3.90;2.27;;;19.60;99.90;;;;;;5042576;28;20646;-89
2021/08/14 07:43:08;;;;;;;3.80;2.00;;;19.60;99.90;;;;;;5021944;28;20281;-89
2021/08/14 07:45:34;;;;;;;8.13;2.50;;;19.50;99.90;;;;;;5037440;28;20217;-87
2021/08/14 07:48:04;;;;;;;3.90;2.00;;;19.40;99.90;;;;;;5038666;28;20227;-89
2021/08/14 07:50:31;;;;;;;6.10;2.30;;;19.40;99.90;;;;;;5054800;28;20283;-88
2021/08/14 07:52:59;;;;;;;3.37;2.07;;;19.40;99.90;;;;;;5057864;28;20543;-90
2021/08/14 07:55:26;;;;;;;5.87;2.23;;;19.40;99.90;;;;;;5042917;28;20200;-89
2021/08/14 07:57:52;;;;;;;6.73;1.57;;;19.40;99.90;;;;;;5036347;28;20221;-88
2021/08/14 08:00:21;;;;;;;5.43;1.67;;;19.40;99.90;;;;;;5041561;28;20228;-89
2021/08/14 08:02:48;;;;;;;4.37;2.40;;;19.40;99.90;;;;;;5059441;28;20223;-90
2021/08/14 08:05:14;;;;;;;6.37;1.93;;;19.60;99.90;;;;;;5075667;28;20230;-88
2021/08/14 08:07:43;;;;;;;7.77;2.17;;;19.60;99.90;;;;;;5057824;28;20553;-89
2021/08/14 08:10:09;;;;;;;2.87;1.53;;;19.80;99.90;;;;;;5058534;28;20212;-91
2021/08/14 08:12:36;;;;;;;6.67;1.93;;;20.00;99.90;;;;;;5041692;28;20225;-89
2021/08/14 08:15:06;;;;;;;7.87;1.90;;;19.90;99.90;;;;;;5042691;28;20221;-89
2021/08/14 08:17:32;;;;;;;5.50;1.90;;;20.00;99.90;;;;;;5042211;28;20299;-90
2021/08/14 08:19:57;;;;;;;4.37;2.03;;;20.00;99.90;;;;;;5041755;28;20185;-89
2021/08/14 08:22:23;;;;;;;3.67;1.80;;;20.00;99.90;;;;;;5041188;28;20239;-89
2021/08/14 08:24:49;;;;;;;6.97;2.40;;;20.00;99.90;;;;;;5041493;28;20200;-88
2021/08/14 08:27:15;;;;;;;7.03;1.87;;;20.10;99.90;;;;;;5057268;28;20217;-90
2021/08/14 08:29:41;;;;;;;4.17;1.90;;;20.00;99.90;;;;;;5027049;28;20761;-86
2021/08/14 08:32:07;;;;;;;3.53;2.10;;;20.20;99.90;;;;;;5043926;28;20189;-88
2021/08/14 08:34:34;;;;;;;4.30;2.60;;;20.50;99.90;;;;;;5058230;28;20311;-87
2021/08/14 08:36:59;;;;;;;4.70;2.13;;;20.80;99.90;;;;;;5072627;28;20598;-86
2021/08/14 08:39:25;;;;;;;6.90;2.07;;;20.80;99.90;;;;;;4979451;28;20227;-86
2021/08/14 08:41:51;;;;;;;4.40;2.43;;;20.60;99.90;;;;;;5045467;28;20193;-88
2021/08/14 08:44:19;;;;;;;11.83;2.47;;;20.50;99.90;;;;;;5041198;28;20213;-85
2021/08/14 08:46:48;;;;;;;7.00;1.90;;;20.30;99.90;;;;;;5050062;28;20573;-89
2021/08/14 08:49:16;;;;;;;6.53;2.27;;;20.10;99.90;;;;;;5057289;28;20212;-87
2021/08/14 08:51:42;;;;;;;8.83;2.83;;;20.00;99.90;;;;;;5041828;28;20223;-87
2021/08/14 08:54:12;;;;;;;5.67;2.57;;;20.00;99.90;;;;;;4979438;28;20209;-88
2021/08/14 08:56:38;;;;;;;6.27;2.07;;;20.30;99.90;;;;;;5058087;28;20650;-87
2021/08/14 08:59:04;;;;;;;5.17;1.70;;;20.40;99.90;;;;;;5040917;28;20189;-89
2021/08/14 09:01:30;;;;;;;2.73;1.90;;;20.80;99.90;;;;;;5037408;28;20221;-87
2021/08/14 09:04:26;;;;;;;5.23;1.70;;;21.30;99.90;;;;;;5012103;28;20581;-87
2021/08/14 09:06:52;;;;;;;3.20;1.93;;;22.00;99.90;;;;;;5030608;28;20285;-90
2021/08/14 09:09:29;;;;;;;2.80;1.93;;;22.00;99.90;;;;;;5051453;28;20192;-87
2021/08/14 09:12:00;;;;;;;5.37;2.53;;;21.90;99.90;;;;;;5060170;28;20187;-86
2021/08/14 09:14:28;;;;;;;7.77;1.87;;;21.50;99.90;;;;;;5050575;28;20634;-86
2021/08/14 09:17:08;;;;;;;5.40;2.27;;;21.30;99.90;;;;;;5058488;28;20254;-89
2021/08/14 09:19:35;;;;;;;3.87;1.80;;;21.30;99.90;;;;;;5053142;28;20256;-87
2021/08/14 09:22:20;;;;;;;3.07;1.47;;;21.10;99.90;;;;;;5057138;28;20693;-87
2021/08/14 09:24:45;;;;;;;2.63;1.70;;;20.80;99.90;;;;;;5056986;28;20239;-86
2021/08/14 09:27:15;;;;;;;2.47;1.73;;;20.50;99.90;;;;;;5042050;28;20184;-86
2021/08/14 09:29:42;;;;;;;4.10;2.03;;;20.60;99.90;;;;;;5059625;28;20530;-87
2021/08/14 09:32:10;;;;;;;4.23;1.77;;;21.00;99.90;;;;;;5040098;28;20215;-89
2021/08/14 09:34:41;;;;;;;7.77;2.27;;;21.60;99.90;;;;;;5057281;28;20204;-87
2021/08/14 09:37:12;;;;;;;4.13;2.20;;;21.60;99.90;;;;;;5060351;28;20228;-89
2021/08/14 09:40:00;;;;;;;3.70;2.07;;;21.50;99.90;;;;;;5041766;28;20208;-87
2021/08/14 09:42:28;;;;;;;7.03;2.50;;;21.30;99.90;;;;;;5041310;28;20700;-88
2021/08/14 09:45:14;;;;;;;6.20;2.07;;;21.10;99.90;;;;;;5038634;28;20253;-91
2021/08/14 09:47:41;;;;;;;4.90;2.20;;;21.30;99.90;;;;;;5058373;28;20184;-90
2021/08/14 09:50:08;;;;;;;6.40;1.87;;;21.80;99.90;;;;;;5042622;28;20223;-91
2021/08/14 09:52:34;;;;;;;4.40;1.47;;;22.20;99.90;;;;;;5054815;28;20879;-92
2021/08/14 09:55:00;;;;;;;9.50;2.43;;;22.70;99.90;;;;;;5066590;28;20296;-90
2021/08/14 09:57:26;;;;;;;5.70;2.10;;;22.60;99.90;;;;;;5039746;28;20224;-92
2021/08/14 09:59:53;;;;;;;5.33;1.73;;;22.40;99.90;;;;;;5043276;28;20922;-89
2021/08/14 10:02:27;;;;;;;3.90;1.40;;;22.70;99.90;;;;;;5067140;28;20653;-92
2021/08/14 10:04:57;;;;;;;3.88;2.15;;;23.20;99.90;;;;;;5041065;28;20215;-90
2021/08/14 10:07:25;;;;;;;2.97;1.63;;;23.50;99.90;;;;;;5060325;28;20611;-91
2021/08/14 10:09:52;;;;;;;2.63;1.45;;;22.00;99.90;;;;;;5042072;28;20224;-89
2021/08/14 10:12:19;;;;;;;7.57;2.30;;;21.50;99.90;;;;;;5041848;28;20216;-91
2021/08/14 10:14:49;;;;;;;1.50;1.40;;;21.40;99.90;;;;;;5059265;28;20193;-90
2021/08/14 10:17:16;;;;;;;2.93;1.40;;;21.90;99.90;;;;;;5058145;28;20217;-90
2021/08/14 10:19:43;;;;;;;4.93;2.30;;;21.50;99.90;;;;;;5057926;28;20228;-90
2021/08/14 10:22:10;;;;;;;5.38;1.70;;;21.50;99.90;;;;;;5066722;28;20314;-89
2021/08/14 10:24:39;;;;;;;4.97;2.10;;;21.30;99.90;;;;;;5057944;28;20681;-90
2021/08/14 10:27:08;;;;;;;5.37;2.40;;;21.10;99.90;;;;;;5055899;28;20217;-89
2021/08/14 10:29:51;;;;;;;4.83;1.67;;;21.30;99.90;;;;;;5060414;28;20192;-89
2021/08/14 10:32:32;;;;;;;2.53;2.00;;;21.20;99.90;;;;;;5078095;28;20228;-88
2021/08/14 10:35:20;;;;;;;3.77;1.97;;;21.10;99.90;;;;;;5071427;28;20572;-90
2021/08/14 10:37:47;;;;;;;3.40;1.70;;;21.50;99.90;;;;;;5061591;28;20208;-90
2021/08/14 10:40:14;;;;;;;5.80;1.90;;;21.50;99.90;;;;;;5043150;28;20205;-90
2021/08/14 10:42:49;;;;;;;2.67;1.60;;;22.00;99.90;;;;;;5058762;28;20208;-90
2021/08/14 10:45:21;;;;;;;4.20;2.07;;;22.50;99.90;;;;;;5059075;28;20285;-90
2021/08/14 10:47:50;;;;;;;5.83;1.93;;;23.90;99.90;;;;;;5063185;28;20192;-93
2021/08/14 10:50:31;;;;;;;5.32;1.33;;;24.70;99.90;;;;;;5030748;28;20215;-91
2021/08/14 10:53:17;;;;;;;5.45;2.10;;;24.60;99.90;;;;;;5062569;28;20691;-90
2021/08/14 10:55:44;;;;;;;3.90;1.67;;;24.60;99.90;;;;;;5069711;28;20217;-92
2021/08/14 10:58:30;;;;;;;2.90;1.33;;;23.60;99.90;;;;;;5060902;28;20673;-93
2021/08/14 11:01:02;;;;;;;5.40;1.90;;;23.40;99.90;;;;;;5060023;28;20213;-91
2021/08/14 11:03:33;;;;;;;3.65;1.17;;;23.80;99.90;;;;;;5058017;28;20228;-92
2021/08/14 11:06:27;;;;;;;9.18;1.65;;;23.30;99.90;;;;;;5060355;28;20209;-93
2021/08/14 11:09:15;;;;;;;3.63;1.58;;;22.50;99.90;;;;;;5061817;28;20186;-88
2021/08/14 11:11:41;;;;;;;3.55;1.67;;;21.50;99.90;;;;;;5059272;28;20185;-90
2021/08/14 11:14:11;;;;;;;5.65;1.85;;;21.10;99.90;;;;;;5044026;28;20216;-96
2021/08/14 11:16:58;;;;;;;4.05;1.67;;;21.20;99.90;;;;;;5081979;28;20209;-93
2021/08/14 11:19:49;;;;;;;5.63;2.20;;;21.50;99.90;;;;;;5038117;28;20623;-89
2021/08/14 11:22:24;;;;;;;3.83;1.80;;;22.30;99.90;;;;;;5039095;28;20226;-90
2021/08/14 11:24:51;;;;;;;2.80;1.70;;;22.90;99.90;;;;;;5037929;28;20235;-93
2021/08/14 11:27:29;;;;;;;5.25;2.17;;;23.10;99.90;;;;;;5040767;28;20219;-91
2021/08/14 11:30:01;;;;;;;5.55;2.10;;;22.90;99.90;;;;;;5038168;28;20210;-91
2021/08/14 11:32:28;;;;;;;5.00;1.70;;;23.10;99.90;;;;;;5040774;28;20193;-90
2021/08/14 11:34:55;;;;;;;5.18;1.50;;;23.40;99.90;;;;;;5039146;28;20294;-91
2021/08/14 11:37:22;;;;;;;7.50;1.42;;;22.70;99.90;;;;;;5023545;28;20202;-92
2021/08/14 11:39:59;;;;;;;6.50;2.40;;;22.90;99.90;;;;;;5054997;28;20210;-92
2021/08/14 11:42:27;;;;;;;5.18;1.85;;;22.30;99.90;;;;;;5039081;28;20214;-90
2021/08/14 11:44:56;;;;;;;6.78;1.45;;;22.40;99.90;;;;;;5035682;28;20717;-94
2021/08/14 11:47:31;;;;;;;6.15;1.92;;;22.40;99.90;;;;;;5023240;28;20183;-92
2021/08/14 11:49:58;;;;;;;3.25;1.52;;;23.10;99.90;;;;;;5038602;28;20210;-91
2021/08/14 11:52:25;;;;;;;2.92;1.17;;;22.50;99.90;;;;;;5038802;28;20278;-92
2021/08/14 11:54:56;;;;;;;2.35;1.35;;;22.20;99.90;;;;;;5022855;28;20206;-90
2021/08/14 11:57:28;;;;;;;3.40;1.42;;;22.00;99.90;;;;;;5019484;28;20214;-89
2021/08/14 11:59:54;;;;;;;3.15;1.27;;;22.50;99.90;;;;;;5038943;28;20225;-88
2021/08/14 12:02:22;;;;;;;3.67;1.50;;;22.20;99.90;;;;;;5029448;28;20612;-91
2021/08/14 12:04:48;;;;;;;2.92;0.95;;;22.50;99.90;;;;;;5019682;28;20210;-89
2021/08/14 12:07:14;;;;;;;4.28;1.35;;;22.20;99.90;;;;;;5034212;28;20233;-89
2021/08/14 12:09:39;;;;;;;5.47;1.60;;;22.00;99.90;;;;;;5005047;28;20210;-93
2021/08/14 12:12:06;;;;;;;9.13;1.83;;;21.80;99.90;;;;;;5022462;28;20643;-90
2021/08/14 12:14:42;;;;;;;6.22;2.10;;;21.70;99.90;;;;;;5029318;28;20228;-90
2021/08/14 12:17:07;;;;;;;3.73;1.40;;;21.80;99.90;;;;;;5045778;28;20309;-90
2021/08/14 12:19:34;;;;;;;3.28;1.45;;;21.90;99.90;;;;;;5044431;28;20312;-89
2021/08/14 12:22:14;;;;;;;2.20;1.40;;;21.90;99.90;;;;;;5051795;28;20220;-88
2021/08/14 12:24:45;;;;;;;2.10;1.33;;;22.20;99.90;;;;;;5059798;28;20216;-90
2021/08/14 12:27:33;;;;;;;1.97;1.33;;;22.40;99.90;;;;;;5059063;28;20190;-92
2021/08/14 12:30:22;;;;;;;4.07;1.17;;;22.40;99.90;;;;;;5057867;28;20235;-90
2021/08/14 12:32:51;;;;;;;13.90;2.75;;;22.20;99.90;;;;;;5052002;28;20277;-90
2021/08/14 12:35:21;;;;;;;2.88;1.40;;;22.30;99.90;;;;;;5057853;28;20216;-89
2021/08/14 12:37:48;;;;;;;4.00;1.17;;;21.90;99.90;;;;;;5051545;28;20212;-92
2021/08/14 12:40:19;;;;;;;3.25;1.55;;;22.20;99.90;;;;;;5060255;28;20665;-95
2021/08/14 12:42:46;;;;;;;1.50;1.07;;;21.70;99.90;;;;;;5058688;28;20294;-93
2021/08/14 12:45:19;;;;;;;0.80;0.80;;;21.30;99.90;;;;;;5043601;28;20230;-91